sensor_id;sensor_type;location;lat;lon;timestamp;pressure;altitude;pressure_sealevel;temperature
71205;BMP180;58935;54.498;18.544;2023-09-19T00:01:33;99606.60;;;20.30
71205;BMP180;58935;54.498;18.544;2023-09-19T00:03:58;99613.00;;;20.30
71205;BMP180;58935;54.498;18.544;2023-09-19T00:06:24;99610.80;;;20.30
71205;BMP180;58935;54.498;18.544;2023-09-19T00:08:51;99616.80;;;20.30
71205;BMP180;58935;54.498;18.544;2023-09-19T00:11:17;99614.80;;;20.30
71205;BMP180;58935;54.498;18.544;2023-09-19T00:13:42;99615.20;;;20.30
71205;BMP180;58935;54.498;18.544;2023-09-19T00:16:09;99619.60;;;20.30
71205;BMP180;58935;54.498;18.544;2023-09-19T00:18:37;99618.80;;;20.30
71205;BMP180;58935;54.498;18.544;2023-09-19T00:21:03;99616.00;;;20.30
71205;BMP180;58935;54.498;18.544;2023-09-19T00:23:30;99614.60;;;20.30
71205;BMP180;58935;54.498;18.544;2023-09-19T00:25:59;99615.40;;;20.30
71205;BMP180;58935;54.498;18.544;2023-09-19T00:28:25;99617.40;;;20.30
71205;BMP180;58935;54.498;18.544;2023-09-19T00:30:51;99614.60;;;20.30
71205;BMP180;58935;54.498;18.544;2023-09-19T00:33:16;99614.60;;;20.34
71205;BMP180;58935;54.498;18.544;2023-09-19T00:35:47;99612.60;;;20.40
71205;BMP180;58935;54.498;18.544;2023-09-19T00:38:12;99610.00;;;20.40
71205;BMP180;58935;54.498;18.544;2023-09-19T00:40:44;99612.80;;;20.50
71205;BMP180;58935;54.498;18.544;2023-09-19T00:43:10;99615.00;;;20.50
71205;BMP180;58935;54.498;18.544;2023-09-19T00:45:37;99613.60;;;20.50
71205;BMP180;58935;54.498;18.544;2023-09-19T00:48:04;99607.80;;;20.50
71205;BMP180;58935;54.498;18.544;2023-09-19T00:50:31;99605.00;;;20.50
71205;BMP180;58935;54.498;18.544;2023-09-19T00:52:58;99612.00;;;20.50
71205;BMP180;58935;54.498;18.544;2023-09-19T00:55:24;99620.40;;;20.50
71205;BMP180;58935;54.498;18.544;2023-09-19T00:57:50;99622.00;;;20.50
71205;BMP180;58935;54.498;18.544;2023-09-19T01:00:16;99618.40;;;20.50
71205;BMP180;58935;54.498;18.544;2023-09-19T01:02:45;99616.20;;;20.50
71205;BMP180;58935;54.498;18.544;2023-09-19T01:05:12;99613.20;;;20.50
71205;BMP180;58935;54.498;18.544;2023-09-19T01:07:39;99608.20;;;20.42
71205;BMP180;58935;54.498;18.544;2023-09-19T01:10:08;99606.00;;;20.42
71205;BMP180;58935;54.498;18.544;2023-09-19T01:12:48;99599.40;;;20.40
71205;BMP180;58935;54.498;18.544;2023-09-19T01:15:28;99593.80;;;20.40
71205;BMP180;58935;54.498;18.544;2023-09-19T01:18:11;99587.60;;;20.40
71205;BMP180;58935;54.498;18.544;2023-09-19T01:20:50;99592.80;;;20.40
71205;BMP180;58935;54.498;18.544;2023-09-19T01:23:28;99591.40;;;20.40
71205;BMP180;58935;54.498;18.544;2023-09-19T01:28:31;99583.00;;;20.34
71205;BMP180;58935;54.498;18.544;2023-09-19T01:31:02;99570.80;;;20.30
71205;BMP180;58935;54.498;18.544;2023-09-19T01:33:47;99570.40;;;20.30
71205;BMP180;58935;54.498;18.544;2023-09-19T01:36:16;99580.20;;;20.30
71205;BMP180;58935;54.498;18.544;2023-09-19T01:38:41;99577.20;;;20.30
71205;BMP180;58935;54.498;18.544;2023-09-19T01:41:11;99573.60;;;20.28
71205;BMP180;58935;54.498;18.544;2023-09-19T01:43:42;99570.40;;;20.20
71205;BMP180;58935;54.498;18.544;2023-09-19T01:46:12;99570.20;;;20.20
71205;BMP180;58935;54.498;18.544;2023-09-19T01:48:46;99579.20;;;20.20
71205;BMP180;58935;54.498;18.544;2023-09-19T01:51:20;99578.00;;;20.20
71205;BMP180;58935;54.498;18.544;2023-09-19T01:53:59;99581.20;;;20.10
71205;BMP180;58935;54.498;18.544;2023-09-19T01:56:40;99581.60;;;20.10
71205;BMP180;58935;54.498;18.544;2023-09-19T01:59:11;99581.00;;;20.10
71205;BMP180;58935;54.498;18.544;2023-09-19T02:01:39;99577.20;;;20.10
71205;BMP180;58935;54.498;18.544;2023-09-19T02:04:05;99585.80;;;20.04
71205;BMP180;58935;54.498;18.544;2023-09-19T02:06:32;99587.80;;;20.00
71205;BMP180;58935;54.498;18.544;2023-09-19T02:08:59;99595.00;;;20.00
71205;BMP180;58935;54.498;18.544;2023-09-19T02:11:24;99585.40;;;20.00
71205;BMP180;58935;54.498;18.544;2023-09-19T02:13:50;99586.00;;;19.96
71205;BMP180;58935;54.498;18.544;2023-09-19T02:16:19;99580.40;;;19.90
71205;BMP180;58935;54.498;18.544;2023-09-19T02:18:48;99576.20;;;19.90
71205;BMP180;58935;54.498;18.544;2023-09-19T02:21:14;99575.60;;;19.90
71205;BMP180;58935;54.498;18.544;2023-09-19T02:23:40;99576.00;;;19.90
71205;BMP180;58935;54.498;18.544;2023-09-19T02:26:06;99567.40;;;19.90
71205;BMP180;58935;54.498;18.544;2023-09-19T02:28:31;99561.40;;;19.90
71205;BMP180;58935;54.498;18.544;2023-09-19T02:30:57;99555.60;;;19.82
71205;BMP180;58935;54.498;18.544;2023-09-19T02:33:23;99557.80;;;19.80
71205;BMP180;58935;54.498;18.544;2023-09-19T02:35:48;99549.80;;;19.80
71205;BMP180;58935;54.498;18.544;2023-09-19T02:38:14;99551.60;;;19.80
71205;BMP180;58935;54.498;18.544;2023-09-19T02:40:43;99553.20;;;19.80
71205;BMP180;58935;54.498;18.544;2023-09-19T02:43:08;99546.80;;;19.80
71205;BMP180;58935;54.498;18.544;2023-09-19T02:45:34;99544.00;;;19.80
71205;BMP180;58935;54.498;18.544;2023-09-19T02:47:59;99541.60;;;19.80
71205;BMP180;58935;54.498;18.544;2023-09-19T02:50:25;99540.20;;;19.80
71205;BMP180;58935;54.498;18.544;2023-09-19T02:52:50;99536.80;;;19.76
71205;BMP180;58935;54.498;18.544;2023-09-19T02:55:17;99530.40;;;19.70
71205;BMP180;58935;54.498;18.544;2023-09-19T02:57:47;99527.60;;;19.70
71205;BMP180;58935;54.498;18.544;2023-09-19T03:00:12;99525.60;;;19.60
71205;BMP180;58935;54.498;18.544;2023-09-19T03:02:38;99517.80;;;19.60
71205;BMP180;58935;54.498;18.544;2023-09-19T03:05:05;99511.20;;;19.50
71205;BMP180;58935;54.498;18.544;2023-09-19T03:07:31;99506.20;;;19.40
71205;BMP180;58935;54.498;18.544;2023-09-19T03:09:56;99508.20;;;19.40
71205;BMP180;58935;54.498;18.544;2023-09-19T03:12:22;99511.80;;;19.30
71205;BMP180;58935;54.498;18.544;2023-09-19T03:14:47;99510.60;;;19.30
71205;BMP180;58935;54.498;18.544;2023-09-19T03:17:13;99510.00;;;19.26
71205;BMP180;58935;54.498;18.544;2023-09-19T03:19:40;99511.60;;;19.20
71205;BMP180;58935;54.498;18.544;2023-09-19T03:22:05;99508.40;;;19.20
71205;BMP180;58935;54.498;18.544;2023-09-19T03:24:31;99499.60;;;19.20
71205;BMP180;58935;54.498;18.544;2023-09-19T03:26:59;99502.20;;;19.10
71205;BMP180;58935;54.498;18.544;2023-09-19T03:29:25;99507.20;;;19.10
71205;BMP180;58935;54.498;18.544;2023-09-19T03:31:50;99506.20;;;19.10
71205;BMP180;58935;54.498;18.544;2023-09-19T03:34:16;99509.00;;;19.10
71205;BMP180;58935;54.498;18.544;2023-09-19T03:36:41;99511.80;;;19.08
71205;BMP180;58935;54.498;18.544;2023-09-19T03:39:06;99506.40;;;19.00
71205;BMP180;58935;54.498;18.544;2023-09-19T03:41:32;99506.80;;;19.00
71205;BMP180;58935;54.498;18.544;2023-09-19T03:43:58;99507.00;;;19.00
71205;BMP180;58935;54.498;18.544;2023-09-19T03:46:23;99507.60;;;18.96
71205;BMP180;58935;54.498;18.544;2023-09-19T03:48:50;99513.00;;;18.94
71205;BMP180;58935;54.498;18.544;2023-09-19T03:51:15;99518.40;;;18.90
71205;BMP180;58935;54.498;18.544;2023-09-19T03:53:40;99513.20;;;18.90
71205;BMP180;58935;54.498;18.544;2023-09-19T03:56:06;99507.80;;;18.90
71205;BMP180;58935;54.498;18.544;2023-09-19T03:58:31;99504.80;;;18.84
71205;BMP180;58935;54.498;18.544;2023-09-19T04:00:57;99492.40;;;18.80
71205;BMP180;58935;54.498;18.544;2023-09-19T04:03:23;99487.40;;;18.80
71205;BMP180;58935;54.498;18.544;2023-09-19T04:05:49;99482.00;;;18.80
71205;BMP180;58935;54.498;18.544;2023-09-19T04:08:15;99478.40;;;18.78
71205;BMP180;58935;54.498;18.544;2023-09-19T04:10:42;99483.00;;;18.70
71205;BMP180;58935;54.498;18.544;2023-09-19T04:13:09;99484.20;;;18.70
71205;BMP180;58935;54.498;18.544;2023-09-19T04:15:34;99480.80;;;18.70
71205;BMP180;58935;54.498;18.544;2023-09-19T04:17:59;99476.60;;;18.70
71205;BMP180;58935;54.498;18.544;2023-09-19T04:20:24;99473.00;;;18.70
71205;BMP180;58935;54.498;18.544;2023-09-19T04:22:50;99468.20;;;18.60
71205;BMP180;58935;54.498;18.544;2023-09-19T04:25:16;99468.80;;;18.60
71205;BMP180;58935;54.498;18.544;2023-09-19T04:27:41;99464.00;;;18.60
71205;BMP180;58935;54.498;18.544;2023-09-19T04:30:07;99463.20;;;18.60
71205;BMP180;58935;54.498;18.544;2023-09-19T04:32:37;99460.00;;;18.60
71205;BMP180;58935;54.498;18.544;2023-09-19T04:35:06;99457.40;;;18.60
71205;BMP180;58935;54.498;18.544;2023-09-19T04:37:33;99461.00;;;18.50
71205;BMP180;58935;54.498;18.544;2023-09-19T04:40:00;99454.20;;;18.50
71205;BMP180;58935;54.498;18.544;2023-09-19T04:42:25;99459.40;;;18.50
71205;BMP180;58935;54.498;18.544;2023-09-19T04:44:50;99462.80;;;18.50
71205;BMP180;58935;54.498;18.544;2023-09-19T04:47:19;99469.60;;;18.50
71205;BMP180;58935;54.498;18.544;2023-09-19T04:49:44;99476.80;;;18.50
71205;BMP180;58935;54.498;18.544;2023-09-19T04:52:09;99473.60;;;18.50
71205;BMP180;58935;54.498;18.544;2023-09-19T04:54:34;99472.60;;;18.50
71205;BMP180;58935;54.498;18.544;2023-09-19T04:57:00;99471.00;;;18.50
71205;BMP180;58935;54.498;18.544;2023-09-19T04:59:26;99479.00;;;18.44
71205;BMP180;58935;54.498;18.544;2023-09-19T05:01:51;99476.60;;;18.40
71205;BMP180;58935;54.498;18.544;2023-09-19T05:04:16;99484.60;;;18.40
71205;BMP180;58935;54.498;18.544;2023-09-19T05:06:41;99484.80;;;18.40
71205;BMP180;58935;54.498;18.544;2023-09-19T05:09:07;99487.40;;;18.40
71205;BMP180;58935;54.498;18.544;2023-09-19T05:11:33;99494.20;;;18.40
71205;BMP180;58935;54.498;18.544;2023-09-19T05:13:59;99490.00;;;18.32
71205;BMP180;58935;54.498;18.544;2023-09-19T05:16:29;99498.80;;;18.30
71205;BMP180;58935;54.498;18.544;2023-09-19T05:18:57;99505.40;;;18.30
71205;BMP180;58935;54.498;18.544;2023-09-19T05:21:23;99506.80;;;18.30
71205;BMP180;58935;54.498;18.544;2023-09-19T05:23:51;99509.60;;;18.30
71205;BMP180;58935;54.498;18.544;2023-09-19T05:26:17;99496.00;;;18.30
71205;BMP180;58935;54.498;18.544;2023-09-19T05:28:43;99493.40;;;18.30
71205;BMP180;58935;54.498;18.544;2023-09-19T05:31:08;99496.00;;;18.30
71205;BMP180;58935;54.498;18.544;2023-09-19T05:33:34;99499.00;;;18.30
71205;BMP180;58935;54.498;18.544;2023-09-19T05:35:59;99498.40;;;18.22
71205;BMP180;58935;54.498;18.544;2023-09-19T05:38:24;99506.20;;;18.20
71205;BMP180;58935;54.498;18.544;2023-09-19T05:40:51;99511.60;;;18.20
71205;BMP180;58935;54.498;18.544;2023-09-19T05:43:17;99513.40;;;18.20
71205;BMP180;58935;54.498;18.544;2023-09-19T05:45:43;99523.20;;;18.20
71205;BMP180;58935;54.498;18.544;2023-09-19T05:48:12;99522.20;;;18.20
71205;BMP180;58935;54.498;18.544;2023-09-19T05:50:38;99520.60;;;18.20
71205;BMP180;58935;54.498;18.544;2023-09-19T05:53:04;99516.40;;;18.30
71205;BMP180;58935;54.498;18.544;2023-09-19T05:55:30;99512.80;;;18.30
71205;BMP180;58935;54.498;18.544;2023-09-19T05:57:55;99511.00;;;18.32
71205;BMP180;58935;54.498;18.544;2023-09-19T06:00:22;99515.40;;;18.40
71205;BMP180;58935;54.498;18.544;2023-09-19T06:02:51;99507.00;;;18.40
71205;BMP180;58935;54.498;18.544;2023-09-19T06:05:17;99515.40;;;18.40
71205;BMP180;58935;54.498;18.544;2023-09-19T06:07:42;99517.20;;;18.40
71205;BMP180;58935;54.498;18.544;2023-09-19T06:10:08;99513.60;;;18.40
71205;BMP180;58935;54.498;18.544;2023-09-19T06:12:39;99514.80;;;18.40
71205;BMP180;58935;54.498;18.544;2023-09-19T06:15:05;99518.00;;;18.50
71205;BMP180;58935;54.498;18.544;2023-09-19T06:17:31;99514.60;;;18.50
71205;BMP180;58935;54.498;18.544;2023-09-19T06:19:56;99506.00;;;18.50
71205;BMP180;58935;54.498;18.544;2023-09-19T06:22:21;99510.40;;;18.60
71205;BMP180;58935;54.498;18.544;2023-09-19T06:24:47;99505.80;;;18.60
71205;BMP180;58935;54.498;18.544;2023-09-19T06:27:13;99505.40;;;18.60
71205;BMP180;58935;54.498;18.544;2023-09-19T06:29:38;99505.00;;;18.60
71205;BMP180;58935;54.498;18.544;2023-09-19T06:32:07;99522.40;;;18.60
71205;BMP180;58935;54.498;18.544;2023-09-19T06:34:33;99522.80;;;18.68
71205;BMP180;58935;54.498;18.544;2023-09-19T06:36:59;99519.00;;;18.70
71205;BMP180;58935;54.498;18.544;2023-09-19T06:39:24;99525.20;;;18.78
71205;BMP180;58935;54.498;18.544;2023-09-19T06:41:51;99529.60;;;18.80
71205;BMP180;58935;54.498;18.544;2023-09-19T06:44:18;99529.80;;;18.90
71205;BMP180;58935;54.498;18.544;2023-09-19T06:46:45;99517.80;;;19.00
71205;BMP180;58935;54.498;18.544;2023-09-19T06:49:17;99518.80;;;19.10
71205;BMP180;58935;54.498;18.544;2023-09-19T06:51:42;99527.20;;;19.20
71205;BMP180;58935;54.498;18.544;2023-09-19T06:54:08;99527.00;;;19.20
71205;BMP180;58935;54.498;18.544;2023-09-19T06:56:33;99523.80;;;19.30
71205;BMP180;58935;54.498;18.544;2023-09-19T06:58:58;99520.20;;;19.30
71205;BMP180;58935;54.498;18.544;2023-09-19T07:01:24;99530.80;;;19.38
71205;BMP180;58935;54.498;18.544;2023-09-19T07:03:50;99539.40;;;19.40
71205;BMP180;58935;54.498;18.544;2023-09-19T07:06:15;99539.60;;;19.50
71205;BMP180;58935;54.498;18.544;2023-09-19T07:08:40;99536.20;;;19.50
71205;BMP180;58935;54.498;18.544;2023-09-19T07:11:05;99529.60;;;19.60
71205;BMP180;58935;54.498;18.544;2023-09-19T07:13:31;99531.40;;;19.60
71205;BMP180;58935;54.498;18.544;2023-09-19T07:15:58;99526.80;;;19.60
71205;BMP180;58935;54.498;18.544;2023-09-19T07:18:24;99525.20;;;19.62
71205;BMP180;58935;54.498;18.544;2023-09-19T07:20:50;99527.40;;;19.70
71205;BMP180;58935;54.498;18.544;2023-09-19T07:23:19;99522.60;;;19.70
71205;BMP180;58935;54.498;18.544;2023-09-19T07:25:47;99529.60;;;19.70
71205;BMP180;58935;54.498;18.544;2023-09-19T07:28:14;99532.00;;;19.70
71205;BMP180;58935;54.498;18.544;2023-09-19T07:30:40;99535.40;;;19.80
71205;BMP180;58935;54.498;18.544;2023-09-19T07:33:07;99536.20;;;19.88
71205;BMP180;58935;54.498;18.544;2023-09-19T07:35:33;99535.20;;;19.90
71205;BMP180;58935;54.498;18.544;2023-09-19T07:37:59;99538.20;;;19.90
71205;BMP180;58935;54.498;18.544;2023-09-19T07:40:27;99542.00;;;19.94
71205;BMP180;58935;54.498;18.544;2023-09-19T07:42:55;99547.20;;;19.90
71205;BMP180;58935;54.498;18.544;2023-09-19T07:45:20;99547.60;;;19.90
71205;BMP180;58935;54.498;18.544;2023-09-19T07:47:46;99550.20;;;19.90
71205;BMP180;58935;54.498;18.544;2023-09-19T07:50:13;99554.80;;;19.90
71205;BMP180;58935;54.498;18.544;2023-09-19T07:52:39;99549.80;;;20.00
71205;BMP180;58935;54.498;18.544;2023-09-19T07:55:06;99556.60;;;20.00
71205;BMP180;58935;54.498;18.544;2023-09-19T07:57:35;99559.40;;;20.00
71205;BMP180;58935;54.498;18.544;2023-09-19T08:00:01;99558.20;;;20.02
71205;BMP180;58935;54.498;18.544;2023-09-19T08:02:29;99555.80;;;20.10
71205;BMP180;58935;54.498;18.544;2023-09-19T08:04:55;99554.00;;;20.10
71205;BMP180;58935;54.498;18.544;2023-09-19T08:07:22;99548.40;;;20.10
71205;BMP180;58935;54.498;18.544;2023-09-19T08:09:48;99561.60;;;20.10
71205;BMP180;58935;54.498;18.544;2023-09-19T08:12:14;99557.60;;;20.20
71205;BMP180;58935;54.498;18.544;2023-09-19T08:14:40;99555.60;;;20.20
71205;BMP180;58935;54.498;18.544;2023-09-19T08:17:06;99555.20;;;20.28
71205;BMP180;58935;54.498;18.544;2023-09-19T08:19:33;99562.60;;;20.30
71205;BMP180;58935;54.498;18.544;2023-09-19T08:21:59;99564.80;;;20.38
71205;BMP180;58935;54.498;18.544;2023-09-19T08:24:26;99570.80;;;20.40
71205;BMP180;58935;54.498;18.544;2023-09-19T08:26:54;99575.80;;;20.50
71205;BMP180;58935;54.498;18.544;2023-09-19T08:29:20;99568.60;;;20.60
71205;BMP180;58935;54.498;18.544;2023-09-19T08:31:45;99576.60;;;20.60
71205;BMP180;58935;54.498;18.544;2023-09-19T08:34:14;99582.60;;;20.70
71205;BMP180;58935;54.498;18.544;2023-09-19T08:36:40;99571.80;;;20.70
71205;BMP180;58935;54.498;18.544;2023-09-19T08:39:06;99595.20;;;20.70
71205;BMP180;58935;54.498;18.544;2023-09-19T08:41:32;99595.20;;;20.70
71205;BMP180;58935;54.498;18.544;2023-09-19T08:43:59;99595.40;;;20.80
71205;BMP180;58935;54.498;18.544;2023-09-19T08:46:30;99589.60;;;20.80
71205;BMP180;58935;54.498;18.544;2023-09-19T08:49:03;99600.60;;;20.80
71205;BMP180;58935;54.498;18.544;2023-09-19T08:54:04;99610.60;;;20.80
71205;BMP180;58935;54.498;18.544;2023-09-19T08:56:32;99611.60;;;20.74
71205;BMP180;58935;54.498;18.544;2023-09-19T08:59:03;99602.20;;;20.70
71205;BMP180;58935;54.498;18.544;2023-09-19T09:01:31;99604.60;;;20.70
71205;BMP180;58935;54.498;18.544;2023-09-19T09:03:57;99606.20;;;20.70
71205;BMP180;58935;54.498;18.544;2023-09-19T09:06:24;99601.40;;;20.80
71205;BMP180;58935;54.498;18.544;2023-09-19T09:08:51;99611.20;;;20.90
71205;BMP180;58935;54.498;18.544;2023-09-19T09:11:17;99610.80;;;20.90
71205;BMP180;58935;54.498;18.544;2023-09-19T09:13:45;99616.00;;;20.90
71205;BMP180;58935;54.498;18.544;2023-09-19T09:16:11;99616.20;;;20.98
71205;BMP180;58935;54.498;18.544;2023-09-19T09:18:37;99618.20;;;21.00
71205;BMP180;58935;54.498;18.544;2023-09-19T09:21:03;99626.80;;;21.00
71205;BMP180;58935;54.498;18.544;2023-09-19T09:23:30;99631.00;;;20.90
71205;BMP180;58935;54.498;18.544;2023-09-19T09:25:57;99630.20;;;20.90
71205;BMP180;58935;54.498;18.544;2023-09-19T09:28:28;99632.60;;;20.80
71205;BMP180;58935;54.498;18.544;2023-09-19T09:30:55;99634.20;;;20.80
71205;BMP180;58935;54.498;18.544;2023-09-19T09:33:21;99629.60;;;20.78
71205;BMP180;58935;54.498;18.544;2023-09-19T09:35:54;99628.60;;;20.80
71205;BMP180;58935;54.498;18.544;2023-09-19T09:38:23;99631.40;;;20.80
71205;BMP180;58935;54.498;18.544;2023-09-19T09:40:54;99635.80;;;20.80
71205;BMP180;58935;54.498;18.544;2023-09-19T09:43:33;99638.20;;;20.80
71205;BMP180;58935;54.498;18.544;2023-09-19T09:46:06;99638.20;;;20.80
71205;BMP180;58935;54.498;18.544;2023-09-19T09:48:57;99640.40;;;20.90
71205;BMP180;58935;54.498;18.544;2023-09-19T09:51:29;99647.00;;;21.06
71205;BMP180;58935;54.498;18.544;2023-09-19T09:54:09;99646.40;;;21.10
71205;BMP180;58935;54.498;18.544;2023-09-19T09:56:52;99650.80;;;21.20
71205;BMP180;58935;54.498;18.544;2023-09-19T09:59:43;99646.00;;;21.20
71205;BMP180;58935;54.498;18.544;2023-09-19T10:02:14;99642.40;;;21.20
71205;BMP180;58935;54.498;18.544;2023-09-19T10:04:45;99651.80;;;21.20
71205;BMP180;58935;54.498;18.544;2023-09-19T10:09:48;99661.00;;;21.10
71205;BMP180;58935;54.498;18.544;2023-09-19T10:12:15;99660.00;;;21.00
71205;BMP180;58935;54.498;18.544;2023-09-19T10:14:42;99664.60;;;21.00
71205;BMP180;58935;54.498;18.544;2023-09-19T10:17:13;99675.20;;;21.00
71205;BMP180;58935;54.498;18.544;2023-09-19T10:19:46;99676.60;;;20.96
71205;BMP180;58935;54.498;18.544;2023-09-19T10:22:16;99677.20;;;20.90
71205;BMP180;58935;54.498;18.544;2023-09-19T10:24:47;99667.80;;;20.90
71205;BMP180;58935;54.498;18.544;2023-09-19T10:27:12;99671.00;;;20.90
71205;BMP180;58935;54.498;18.544;2023-09-19T10:29:42;99673.40;;;21.00
71205;BMP180;58935;54.498;18.544;2023-09-19T10:32:10;99681.80;;;21.08
71205;BMP180;58935;54.498;18.544;2023-09-19T10:34:46;99679.00;;;21.20
71205;BMP180;58935;54.498;18.544;2023-09-19T10:37:12;99666.60;;;21.36
71205;BMP180;58935;54.498;18.544;2023-09-19T10:39:39;99666.20;;;21.56
71205;BMP180;58935;54.498;18.544;2023-09-19T10:42:06;99668.60;;;21.70
71205;BMP180;58935;54.498;18.544;2023-09-19T10:44:37;99666.60;;;21.90
71205;BMP180;58935;54.498;18.544;2023-09-19T10:47:07;99667.80;;;22.00
71205;BMP180;58935;54.498;18.544;2023-09-19T10:49:34;99680.00;;;21.96
71205;BMP180;58935;54.498;18.544;2023-09-19T10:52:00;99682.80;;;21.90
71205;BMP180;58935;54.498;18.544;2023-09-19T10:54:32;99689.60;;;21.90
71205;BMP180;58935;54.498;18.544;2023-09-19T10:56:59;99688.60;;;21.90
71205;BMP180;58935;54.498;18.544;2023-09-19T10:59:26;99691.00;;;21.80
71205;BMP180;58935;54.498;18.544;2023-09-19T11:02:00;99693.40;;;21.90
71205;BMP180;58935;54.498;18.544;2023-09-19T11:04:40;99695.20;;;21.82
71205;BMP180;58935;54.498;18.544;2023-09-19T11:07:09;99699.40;;;21.90
71205;BMP180;58935;54.498;18.544;2023-09-19T11:12:07;99696.40;;;21.90
71205;BMP180;58935;54.498;18.544;2023-09-19T11:14:38;99706.60;;;21.90
71205;BMP180;58935;54.498;18.544;2023-09-19T11:22:23;99707.40;;;22.00
71205;BMP180;58935;54.498;18.544;2023-09-19T11:24:51;99711.80;;;22.00
71205;BMP180;58935;54.498;18.544;2023-09-19T11:27:16;99709.60;;;22.00
71205;BMP180;58935;54.498;18.544;2023-09-19T11:29:44;99716.20;;;22.10
71205;BMP180;58935;54.498;18.544;2023-09-19T11:32:10;99719.00;;;22.08
71205;BMP180;58935;54.498;18.544;2023-09-19T11:34:40;99712.60;;;22.00
71205;BMP180;58935;54.498;18.544;2023-09-19T11:37:59;99718.40;;;21.90
71205;BMP180;58935;54.498;18.544;2023-09-19T11:45:06;99720.60;;;21.80
71205;BMP180;58935;54.498;18.544;2023-09-19T11:47:32;99732.20;;;21.80
71205;BMP180;58935;54.498;18.544;2023-09-19T11:50:01;99735.80;;;21.80
71205;BMP180;58935;54.498;18.544;2023-09-19T11:52:28;99723.00;;;21.80
71205;BMP180;58935;54.498;18.544;2023-09-19T11:55:00;99742.80;;;21.74
71205;BMP180;58935;54.498;18.544;2023-09-19T11:57:28;99755.60;;;21.70
71205;BMP180;58935;54.498;18.544;2023-09-19T11:59:55;99741.40;;;21.70
71205;BMP180;58935;54.498;18.544;2023-09-19T12:05:00;99742.20;;;21.60
71205;BMP180;58935;54.498;18.544;2023-09-19T12:07:25;99753.00;;;21.60
71205;BMP180;58935;54.498;18.544;2023-09-19T12:10:03;99759.20;;;21.50
71205;BMP180;58935;54.498;18.544;2023-09-19T12:12:29;99758.20;;;21.40
71205;BMP180;58935;54.498;18.544;2023-09-19T12:14:56;99761.20;;;21.34
71205;BMP180;58935;54.498;18.544;2023-09-19T12:17:24;99764.80;;;21.30
71205;BMP180;58935;54.498;18.544;2023-09-19T12:19:51;99767.80;;;21.20
71205;BMP180;58935;54.498;18.544;2023-09-19T12:22:17;99763.80;;;21.20
71205;BMP180;58935;54.498;18.544;2023-09-19T12:24:44;99762.80;;;21.10
71205;BMP180;58935;54.498;18.544;2023-09-19T12:27:10;99767.20;;;21.10
71205;BMP180;58935;54.498;18.544;2023-09-19T12:32:08;99772.80;;;21.06
71205;BMP180;58935;54.498;18.544;2023-09-19T12:34:34;99777.60;;;21.10
71205;BMP180;58935;54.498;18.544;2023-09-19T12:37:05;99779.00;;;21.20
71205;BMP180;58935;54.498;18.544;2023-09-19T12:39:38;99778.80;;;21.20
71205;BMP180;58935;54.498;18.544;2023-09-19T12:42:03;99778.80;;;21.40
71205;BMP180;58935;54.498;18.544;2023-09-19T12:44:35;99783.00;;;21.60
71205;BMP180;58935;54.498;18.544;2023-09-19T12:47:08;99782.40;;;21.80
71205;BMP180;58935;54.498;18.544;2023-09-19T12:49:34;99783.60;;;22.06
71205;BMP180;58935;54.498;18.544;2023-09-19T12:52:00;99779.60;;;22.20
71205;BMP180;58935;54.498;18.544;2023-09-19T12:54:37;99782.60;;;22.10
71205;BMP180;58935;54.498;18.544;2023-09-19T12:57:04;99796.00;;;22.00
71205;BMP180;58935;54.498;18.544;2023-09-19T12:59:30;99801.40;;;22.00
71205;BMP180;58935;54.498;18.544;2023-09-19T13:02:04;99796.20;;;22.00
71205;BMP180;58935;54.498;18.544;2023-09-19T13:04:31;99792.40;;;22.10
71205;BMP180;58935;54.498;18.544;2023-09-19T13:06:58;99792.60;;;22.20
71205;BMP180;58935;54.498;18.544;2023-09-19T13:09:26;99794.00;;;22.20
71205;BMP180;58935;54.498;18.544;2023-09-19T13:11:59;99795.20;;;22.20
71205;BMP180;58935;54.498;18.544;2023-09-19T13:14:27;99797.60;;;22.10
71205;BMP180;58935;54.498;18.544;2023-09-19T13:16:59;99802.60;;;22.10
71205;BMP180;58935;54.498;18.544;2023-09-19T13:19:34;99795.60;;;22.10
71205;BMP180;58935;54.498;18.544;2023-09-19T13:22:00;99795.80;;;22.18
71205;BMP180;58935;54.498;18.544;2023-09-19T13:24:25;99795.00;;;22.12
71205;BMP180;58935;54.498;18.544;2023-09-19T13:26:53;99792.40;;;22.20
71205;BMP180;58935;54.498;18.544;2023-09-19T13:29:18;99788.80;;;22.20
71205;BMP180;58935;54.498;18.544;2023-09-19T13:31:48;99790.00;;;22.30
71205;BMP180;58935;54.498;18.544;2023-09-19T13:34:13;99795.40;;;22.40
71205;BMP180;58935;54.498;18.544;2023-09-19T13:36:41;99802.60;;;22.50
71205;BMP180;58935;54.498;18.544;2023-09-19T13:39:07;99806.20;;;22.50
71205;BMP180;58935;54.498;18.544;2023-09-19T13:41:34;99799.00;;;22.52
71205;BMP180;58935;54.498;18.544;2023-09-19T13:44:03;99806.40;;;22.60
71205;BMP180;58935;54.498;18.544;2023-09-19T13:46:29;99808.20;;;22.50
71205;BMP180;58935;54.498;18.544;2023-09-19T13:48:59;99811.60;;;22.50
71205;BMP180;58935;54.498;18.544;2023-09-19T13:51:26;99815.60;;;22.50
71205;BMP180;58935;54.498;18.544;2023-09-19T13:53:51;99816.00;;;22.48
71205;BMP180;58935;54.498;18.544;2023-09-19T13:56:17;99814.20;;;22.50
71205;BMP180;58935;54.498;18.544;2023-09-19T13:58:42;99822.00;;;22.50
71205;BMP180;58935;54.498;18.544;2023-09-19T14:01:08;99822.60;;;22.50
71205;BMP180;58935;54.498;18.544;2023-09-19T14:03:38;99819.40;;;22.40
71205;BMP180;58935;54.498;18.544;2023-09-19T14:06:04;99818.40;;;22.40
71205;BMP180;58935;54.498;18.544;2023-09-19T14:08:29;99821.60;;;22.32
71205;BMP180;58935;54.498;18.544;2023-09-19T14:10:55;99834.80;;;22.20
71205;BMP180;58935;54.498;18.544;2023-09-19T14:13:20;99840.20;;;22.10
71205;BMP180;58935;54.498;18.544;2023-09-19T14:15:46;99835.40;;;21.90
71205;BMP180;58935;54.498;18.544;2023-09-19T14:18:11;99838.00;;;21.76
71205;BMP180;58935;54.498;18.544;2023-09-19T14:20:39;99844.20;;;21.60
71205;BMP180;58935;54.498;18.544;2023-09-19T14:23:06;99845.40;;;21.50
71205;BMP180;58935;54.498;18.544;2023-09-19T14:25:34;99848.00;;;21.50